Terminal Aerodrome Forecast
Issued by NWS

Home | Current Version | Previous Version | Text Only | Print | Product List | Glossary On
Versions: 1 2 3 4 5 6 7 8 9 10 11 12 13 14 15
000
FTUS45 KFGZ 270500
TAFPGA
TAF
KPGA 270531Z 2706/2806 VRB03KT P6SM BKN120
     FM271800 02008KT P6SM SCT060 OVC080 PROB30 2718/2723 P6SM -SHRA
      BKN050
     FM272300 34011KT P6SM VCSH SCT040 OVC050
     FM280200 VRB05KT 5SM -SHRASN BR OVC040=

USA.gov is the U.S. government's official web portal to all federal, state and local government web resources and services.